Time;durP1;ratioP1;P1;durP2;ratioP2;P2;SDS_P1;SDS_P2;PMS_P1;PMS_P2;Temp;Humidity;BMP_temperature;BMP_pressure;BME280_temperature;BME280_humidity;BME280_pressure;Samples;Min_cycle;Max_cycle;Signal;HPM_P1;HPM_P2
2023/08/29 00:02:03;;;;;;;21.30;14.70;;;;;;;-145.69;59.89;52085.94;5135836;27;20453;-82
2023/08/29 00:04:30;;;;;;;18.17;11.32;;;;;;;-145.69;59.96;52083.97;5137709;27;20253;-81
2023/08/29 00:06:58;;;;;;;13.77;8.57;;;;;;;-145.69;59.79;52111.69;5137246;27;20317;-80
2023/08/29 00:09:24;;;;;;;21.17;10.45;;;;;;;-145.69;59.66;52089.91;5137086;27;20204;-81
2023/08/29 00:11:51;;;;;;;16.27;10.77;;;;;;;-145.69;59.29;52119.63;5137300;27;20662;-81
2023/08/29 00:14:20;;;;;;;17.63;10.38;;;;;;;-145.69;59.26;52062.19;5137076;27;20196;-81
2023/08/29 00:16:48;;;;;;;17.55;10.82;;;;;;;-145.69;59.01;52070.09;5136997;27;20207;-81
2023/08/29 00:19:15;;;;;;;23.65;11.98;;;;;;;-145.69;58.15;52099.81;5136713;27;20201;-81
2023/08/29 00:21:42;;;;;;;18.63;11.48;;;;;;;-145.69;58.07;52052.28;5136467;27;20232;-82
2023/08/29 00:24:09;;;;;;;17.88;10.95;;;;;;;-145.69;57.87;52080.00;5137069;27;20193;-81
2023/08/29 00:26:35;;;;;;;20.17;12.18;;;;;;;-145.69;57.54;52099.81;5137184;27;20540;-80
2023/08/29 00:29:02;;;;;;;17.85;12.32;;;;;;;-145.69;58.25;52087.94;5136562;27;20199;-81
2023/08/29 00:31:28;;;;;;;20.40;11.57;;;;;;;-145.69;58.04;52068.13;5136651;27;20196;-81
2023/08/29 00:33:59;;;;;;;25.80;13.13;;;;;;;-145.69;57.37;52068.13;5136705;27;20197;-80
2023/08/29 00:36:28;;;;;;;22.52;12.25;;;;;;;-145.69;57.85;52068.13;5136747;27;20232;-81
2023/08/29 00:38:55;;;;;;;15.98;10.35;;;;;;;-145.69;57.95;52064.16;5136576;27;20201;-81
2023/08/29 00:41:21;;;;;;;20.17;12.05;;;;;;;-145.69;57.63;52068.13;5136467;27;20231;-80
2023/08/29 00:43:48;;;;;;;19.25;11.25;;;;;;;-145.69;57.98;52083.97;5094944;28;20240;-81
2023/08/29 00:46:19;;;;;;;18.35;12.18;;;;;;;-145.69;57.75;52070.09;5095373;28;20209;-81
2023/08/29 00:48:46;;;;;;;23.23;12.52;;;;;;;-145.69;57.56;52052.28;5096744;28;20201;-82
2023/08/29 00:51:14;;;;;;;21.30;12.13;;;;;;;-145.69;57.96;52060.22;5095841;28;20207;-81
2023/08/29 00:53:41;;;;;;;16.95;11.00;;;;;;;-145.69;58.26;52101.78;5095014;28;20721;-81
2023/08/29 00:56:07;;;;;;;19.08;12.68;;;;;;;-145.69;57.94;52048.31;5095900;28;20202;-81
2023/08/29 00:58:34;;;;;;;22.23;13.07;;;;;;;-145.69;57.53;52030.50;5095524;28;20194;-81
2023/08/29 01:01:01;;;;;;;19.42;12.68;;;;;;;-145.69;57.62;52056.25;5095696;28;20210;-83
2023/08/29 01:03:28;;;;;;;19.02;11.70;;;;;;;-145.69;58.18;52056.25;5095251;28;20190;-80
2023/08/29 01:05:57;;;;;;;24.45;13.95;;;;;;;-145.69;57.43;52062.19;5094151;28;20218;-80
2023/08/29 01:08:25;;;;;;;14.30;9.85;;;;;;;-145.69;57.50;52054.25;5095113;28;20198;-80
2023/08/29 01:11:07;;;;;;;17.10;11.35;;;;;;;-145.69;57.06;52044.38;5095214;28;20211;-80
2023/08/29 01:13:40;;;;;;;23.60;12.77;;;;;;;-145.69;57.52;52072.09;5095063;28;20213;-81
2023/08/29 01:16:10;;;;;;;24.15;13.52;;;;;;;-145.69;57.60;52076.03;5091068;28;20202;-80
2023/08/29 01:18:38;;;;;;;22.05;13.20;;;;;;;-145.69;57.14;52072.09;5094759;28;20201;-80
2023/08/29 01:21:18;;;;;;;21.60;13.57;;;;;;;-145.69;57.19;52060.22;5094896;28;20202;-80
2023/08/29 01:23:53;;;;;;;21.27;13.65;;;;;;;-145.69;56.90;52028.53;5094573;28;20285;-79
2023/08/29 01:26:22;;;;;;;22.17;12.55;;;;;;;-145.69;57.93;52091.88;5090948;28;20204;-80
2023/08/29 01:28:50;;;;;;;20.45;12.30;;;;;;;-145.69;57.60;52072.09;5094437;28;20641;-80
2023/08/29 01:31:18;;;;;;;21.05;13.32;;;;;;;-145.69;57.46;52083.97;5094469;28;20198;-80
2023/08/29 01:33:46;;;;;;;16.50;10.75;;;;;;;-145.69;57.57;52052.28;5094630;28;20202;-80
2023/08/29 01:36:14;;;;;;;22.88;14.23;;;;;;;-145.69;57.13;52056.25;5094002;28;20202;-80
2023/08/29 01:38:40;;;;;;;22.02;12.55;;;;;;;-145.69;57.37;52083.97;5094524;28;20198;-80
2023/08/29 01:41:07;;;;;;;20.35;12.68;;;;;;;-145.69;57.35;52072.09;5094202;28;20202;-80
2023/08/29 01:43:35;;;;;;;20.88;13.85;;;;;;;-145.69;57.17;52080.00;5130988;27;20247;-81
2023/08/29 01:46:01;;;;;;;22.15;12.93;;;;;;;-145.69;57.38;52072.09;5134949;27;20228;-80
2023/08/29 01:48:29;;;;;;;24.25;13.70;;;;;;;-145.69;57.48;52095.84;5135088;27;20291;-80
2023/08/29 01:50:55;;;;;;;18.92;12.15;;;;;;;-145.69;57.48;52080.00;5134784;27;20244;-80
2023/08/29 01:53:22;;;;;;;25.23;12.85;;;;;;;-145.69;57.14;52056.25;5135179;27;20284;-80
2023/08/29 01:55:50;;;;;;;23.35;14.20;;;;;;;-145.69;57.83;52062.19;5134343;27;20192;-80
2023/08/29 01:58:17;;;;;;;22.38;13.27;;;;;;;-145.69;58.24;52062.19;5134901;27;20630;-80
2023/08/29 02:00:46;;;;;;;22.55;15.13;;;;;;;-145.69;58.12;52089.91;5135007;27;20200;-81
2023/08/29 02:03:12;;;;;;;21.27;14.10;;;;;;;-145.69;58.68;52097.84;5134628;27;20224;-80
2023/08/29 02:05:42;;;;;;;24.55;14.68;;;;;;;-145.69;58.26;52093.88;5134750;27;20681;-80
2023/08/29 02:08:09;;;;;;;21.27;12.55;;;;;;;-145.69;58.56;52056.25;5134376;27;20199;-80
2023/08/29 02:10:35;;;;;;;20.25;12.60;;;;;;;-145.69;58.40;52048.31;5134413;27;20207;-81
2023/08/29 02:13:02;;;;;;;25.30;13.90;;;;;;;-145.69;58.46;52087.94;5134552;27;20551;-80
2023/08/29 02:15:31;;;;;;;24.10;14.73;;;;;;;-145.69;58.69;52089.91;5134804;27;20231;-80
2023/08/29 02:17:59;;;;;;;21.50;12.68;;;;;;;-145.69;58.42;52066.16;5134997;27;20207;-81
2023/08/29 02:20:25;;;;;;;27.20;15.02;;;;;;;-145.69;58.43;52082.00;5134835;27;20199;-81
2023/08/29 02:22:52;;;;;;;22.30;14.02;;;;;;;-145.69;58.14;52066.16;5134816;27;20228;-81
2023/08/29 02:25:18;;;;;;;26.00;15.63;;;;;;;-145.69;57.35;52109.72;5134539;27;20197;-81
2023/08/29 02:27:45;;;;;;;21.45;13.82;;;;;;;-145.69;57.88;52074.06;5135082;27;20193;-81
2023/08/29 02:30:12;;;;;;;24.73;14.00;;;;;;;-145.69;57.73;52080.00;5114951;28;20292;-81
2023/08/29 02:32:39;;;;;;;25.40;13.32;;;;;;;-145.69;57.68;52066.16;5114522;28;20193;-81
2023/08/29 02:35:08;;;;;;;22.45;13.93;;;;;;;-145.69;56.98;52087.94;5113454;28;20308;-80
2023/08/29 02:37:35;;;;;;;26.75;15.55;;;;;;;-145.69;56.56;52056.25;5114222;28;20707;-81
2023/08/29 02:40:04;;;;;;;26.13;14.50;;;;;;;-145.69;57.78;52076.03;5114838;27;20205;-81
2023/08/29 02:42:31;;;;;;;28.00;15.07;;;;;;;-145.69;58.56;52105.75;5114427;28;20459;-81
2023/08/29 02:44:57;;;;;;;22.08;14.32;;;;;;;-145.69;58.84;52089.91;5115653;28;20232;-81
2023/08/29 02:47:24;;;;;;;19.48;11.88;;;;;;;-145.69;58.67;52052.28;5115660;28;20208;-82
2023/08/29 02:49:56;;;;;;;23.40;14.02;;;;;;;-145.69;57.48;52068.13;5114982;28;20201;-80
2023/08/29 02:52:24;;;;;;;23.05;11.68;;;;;;;-145.69;58.76;52099.81;5115418;28;20201;-81
2023/08/29 02:54:51;;;;;;;24.95;15.43;;;;;;;-145.69;59.96;52066.16;5129863;27;20453;-81
2023/08/29 02:57:17;;;;;;;21.02;12.85;;;;;;;-145.69;58.85;52044.38;5131690;27;20674;-81
2023/08/29 02:59:44;;;;;;;18.02;11.45;;;;;;;-145.69;58.41;52080.00;5136584;27;20204;-81
2023/08/29 03:02:10;;;;;;;21.10;12.50;;;;;;;-145.69;58.10;52085.94;5135972;27;20216;-80
2023/08/29 03:04:37;;;;;;;25.05;16.08;;;;;;;-145.69;58.62;52076.03;5135671;27;20197;-80
2023/08/29 03:07:04;;;;;;;26.60;13.75;;;;;;;-145.69;58.16;52074.06;5135226;27;20201;-81
2023/08/29 03:09:33;;;;;;;23.65;14.25;;;;;;;-145.69;58.63;52083.97;5135818;27;20296;-81
2023/08/29 03:12:00;;;;;;;20.23;12.57;;;;;;;-145.69;58.55;52080.00;5135709;27;20193;-80
2023/08/29 03:14:27;;;;;;;23.58;12.70;;;;;;;-145.69;58.50;52076.03;5132261;27;20241;-80
2023/08/29 03:16:54;;;;;;;26.15;15.63;;;;;;;-145.69;58.15;52074.06;5136297;27;20201;-80
2023/08/29 03:19:20;;;;;;;28.50;15.55;;;;;;;-145.69;58.43;52080.00;5135843;28;20559;-81
2023/08/29 03:21:47;;;;;;;24.50;14.77;;;;;;;-145.69;58.96;52095.84;5135268;27;20207;-81
2023/08/29 03:24:13;;;;;;;27.35;12.95;;;;;;;-145.69;58.89;52103.78;5135768;28;20556;-81
2023/08/29 03:26:41;;;;;;;32.55;16.77;;;;;;;-145.69;58.25;52048.31;5136562;27;20288;-80
2023/08/29 03:29:08;;;;;;;20.90;13.25;;;;;;;-145.69;58.95;52085.94;5135365;27;20192;-81
2023/08/29 03:31:34;;;;;;;26.45;14.63;;;;;;;-145.69;58.57;52074.06;5134947;27;20674;-81
2023/08/29 03:34:02;;;;;;;27.98;15.23;;;;;;;-145.69;58.82;52097.84;5135412;28;20207;-80
2023/08/29 03:36:30;;;;;;;24.25;15.07;;;;;;;-145.69;58.64;52091.88;5135368;27;20196;-80
2023/08/29 03:38:56;;;;;;;21.65;13.38;;;;;;;-145.69;58.65;52107.72;5135277;27;20220;-81
2023/08/29 03:41:23;;;;;;;26.83;13.77;;;;;;;-145.69;58.53;52072.09;5134947;28;20667;-81
2023/08/29 03:43:51;;;;;;;23.83;15.30;;;;;;;-145.69;58.54;52064.16;5135043;27;20226;-81
2023/08/29 03:46:18;;;;;;;20.45;11.90;;;;;;;-145.69;58.89;52064.16;5134175;27;20556;-81
2023/08/29 03:48:44;;;;;;;18.70;11.93;;;;;;;-145.69;58.85;52091.88;5134674;28;20196;-81
2023/08/29 03:51:11;;;;;;;22.20;13.93;;;;;;;-145.69;58.25;52068.13;5134131;28;20532;-81
2023/08/29 03:53:41;;;;;;;22.05;13.13;;;;;;;-145.69;58.65;52060.22;5133874;28;20211;-80
2023/08/29 03:56:10;;;;;;;24.92;14.98;;;;;;;-145.69;58.34;52089.91;5133076;28;20194;-80
2023/08/29 03:58:40;;;;;;;24.80;14.23;;;;;;;-145.69;58.25;52072.09;5133542;27;20853;-81
2023/08/29 04:01:08;;;;;;;25.90;14.18;;;;;;;-145.69;58.57;52080.00;5133704;27;20253;-80
2023/08/29 04:03:35;;;;;;;21.23;13.27;;;;;;;-145.69;58.36;52060.22;5133627;27;20228;-80
2023/08/29 04:06:01;;;;;;;22.13;13.80;;;;;;;-145.69;58.80;52082.00;5133594;27;20554;-80
2023/08/29 04:08:28;;;;;;;22.65;14.25;;;;;;;-145.69;57.78;52091.88;5133332;27;20193;-81
2023/08/29 04:11:03;;;;;;;25.20;15.25;;;;;;;-145.69;58.56;52076.03;5133774;28;20567;-80
2023/08/29 04:13:29;;;;;;;23.83;14.25;;;;;;;-145.69;58.71;52095.84;5133687;27;20287;-80
2023/08/29 04:16:01;;;;;;;23.75;14.32;;;;;;;-145.69;58.23;52060.22;5133533;28;20200;-80
2023/08/29 04:18:28;;;;;;;17.70;11.63;;;;;;;-145.69;58.08;52093.88;5134081;27;20818;-80
2023/08/29 04:20:55;;;;;;;24.30;14.70;;;;;;;-145.69;58.08;52056.25;5136837;27;20219;-80
2023/08/29 04:23:22;;;;;;;18.20;11.45;;;;;;;-145.69;58.51;52064.16;5137819;27;20235;-80
2023/08/29 04:25:49;;;;;;;21.65;12.73;;;;;;;-145.69;58.54;52105.75;5137809;27;20674;-80
2023/08/29 04:28:20;;;;;;;20.65;13.60;;;;;;;-145.69;57.70;52082.00;5118212;28;20280;-80
2023/08/29 04:30:46;;;;;;;18.35;12.70;;;;;;;-145.69;58.23;52066.16;5117951;28;20217;-81
2023/08/29 04:33:13;;;;;;;20.70;13.95;;;;;;;-145.69;57.91;52087.94;5118089;28;20201;-81
2023/08/29 04:35:41;;;;;;;20.80;13.05;;;;;;;-145.69;58.06;52087.94;5118666;28;20232;-81
2023/08/29 04:38:07;;;;;;;21.77;14.23;;;;;;;-145.69;58.28;52085.94;5118567;28;20656;-81
2023/08/29 04:40:36;;;;;;;21.52;14.05;;;;;;;-145.69;57.87;52078.03;5119184;28;20231;-81
2023/08/29 04:43:03;;;;;;;21.77;13.13;;;;;;;-145.69;58.24;52083.97;5118645;28;20237;-80
2023/08/29 04:45:29;;;;;;;17.10;11.73;;;;;;;-145.69;58.41;52078.03;5118008;28;20203;-80
2023/08/29 04:47:56;;;;;;;22.08;12.77;;;;;;;-145.69;58.53;52080.00;5132600;27;20193;-81
2023/08/29 04:50:23;;;;;;;21.95;12.68;;;;;;;-145.69;58.79;52083.97;5138601;27;20533;-81
2023/08/29 04:52:53;;;;;;;18.00;11.40;;;;;;;-145.69;58.37;52072.09;5138903;27;20625;-81
2023/08/29 04:55:20;;;;;;;18.00;11.02;;;;;;;-145.69;58.41;52099.81;5138486;27;20623;-80
2023/08/29 04:57:46;;;;;;;16.52;11.13;;;;;;;-145.69;58.62;52060.22;5139296;27;20207;-81
2023/08/29 05:00:14;;;;;;;16.02;10.75;;;;;;;-145.69;58.57;52076.03;5138379;27;20197;-80
2023/08/29 05:02:41;;;;;;;15.73;10.82;;;;;;;-145.69;58.23;52066.16;5136719;27;20579;-80
2023/08/29 05:05:08;;;;;;;16.75;10.52;;;;;;;-145.69;57.88;52072.09;5136339;27;20200;-81
2023/08/29 05:07:35;;;;;;;17.83;10.50;;;;;;;-145.69;58.55;52087.94;5136532;27;20212;-81
2023/08/29 05:10:03;;;;;;;18.65;11.93;;;;;;;-145.69;58.80;52091.88;5137687;27;20197;-81
2023/08/29 05:12:29;;;;;;;18.95;12.27;;;;;;;-145.69;57.93;52066.16;5136217;27;20193;-81
2023/08/29 05:14:56;;;;;;;22.88;12.30;;;;;;;-145.69;58.88;52068.13;5127967;27;20208;-81
2023/08/29 05:17:23;;;;;;;17.95;11.82;;;;;;;-145.69;58.83;52050.31;5115497;27;20198;-80
2023/08/29 05:19:50;;;;;;;13.95;9.77;;;;;;;-145.69;58.95;52076.03;5115453;28;20228;-80
2023/08/29 05:22:17;;;;;;;19.27;11.77;;;;;;;-145.69;58.86;52085.94;5115226;27;20197;-80
2023/08/29 05:24:43;;;;;;;16.77;10.77;;;;;;;-145.69;58.53;52066.16;5121430;27;20228;-80
2023/08/29 05:27:11;;;;;;;22.73;11.38;;;;;;;-145.69;58.38;52089.91;5135789;27;20192;-81
2023/08/29 05:29:38;;;;;;;19.98;12.57;;;;;;;-145.69;56.62;52076.03;5137340;27;20200;-81
2023/08/29 05:32:05;;;;;;;19.00;11.07;;;;;;;-145.69;58.47;52109.72;5135566;27;20224;-81
2023/08/29 05:34:32;;;;;;;18.83;12.70;;;;;;;-145.69;58.60;52080.00;5135076;27;20200;-81
2023/08/29 05:36:58;;;;;;;17.75;12.10;;;;;;;-145.69;58.55;52062.19;5135468;27;20228;-80
2023/08/29 05:39:25;;;;;;;22.95;13.38;;;;;;;-145.69;57.64;52048.31;5135618;27;20230;-80
2023/08/29 05:41:51;;;;;;;22.48;13.23;;;;;;;-145.69;58.63;52109.72;5136487;27;20235;-80
2023/08/29 05:44:19;;;;;;;23.20;13.23;;;;;;;-145.69;57.86;52103.78;5136310;27;20224;-81
2023/08/29 05:46:46;;;;;;;19.85;11.88;;;;;;;-145.69;58.31;52076.03;5136077;27;20201;-81
2023/08/29 05:49:13;;;;;;;18.50;13.38;;;;;;;-145.69;59.38;52083.97;5135305;27;20477;-81
2023/08/29 05:51:39;;;;;;;19.13;12.63;;;;;;;-145.69;58.68;52062.19;5135797;27;20556;-80
2023/08/29 05:54:06;;;;;;;19.60;11.88;;;;;;;-145.69;58.70;52068.13;5135546;27;20226;-81
2023/08/29 05:56:33;;;;;;;20.45;13.15;;;;;;;-145.69;58.56;52083.97;5134741;27;20203;-81
2023/08/29 05:58:59;;;;;;;21.73;13.13;;;;;;;-145.69;59.00;52068.13;5135513;27;20211;-81
2023/08/29 06:01:27;;;;;;;18.65;12.52;;;;;;;-145.69;59.60;52119.63;5134802;27;20284;-81
2023/08/29 06:03:55;;;;;;;23.35;13.90;;;;;;;-145.69;57.65;52083.97;5137590;27;20221;-81
2023/08/29 06:06:22;;;;;;;25.73;14.30;;;;;;;-145.69;59.04;52085.94;5136500;27;20299;-81
2023/08/29 06:08:48;;;;;;;18.88;12.73;;;;;;;-145.69;59.56;52111.69;5135460;27;20238;-82
2023/08/29 06:11:15;;;;;;;22.30;12.98;;;;;;;-145.69;59.89;52089.91;5135079;27;20694;-81
2023/08/29 06:13:44;;;;;;;22.90;13.80;;;;;;;-145.69;59.58;52083.97;5134909;27;20202;-81
2023/08/29 06:16:10;;;;;;;22.63;15.40;;;;;;;-145.69;59.67;52103.78;5135840;27;20199;-81
2023/08/29 06:18:38;;;;;;;20.27;14.05;;;;;;;-145.69;58.85;52078.03;5134733;27;20221;-81
2023/08/29 06:21:05;;;;;;;22.10;13.88;;;;;;;-145.69;57.48;52111.69;5136224;27;20207;-81
2023/08/29 06:23:34;;;;;;;26.67;15.25;;;;;;;-145.69;58.63;52083.97;5135207;27;20221;-82
2023/08/29 06:26:00;;;;;;;22.85;15.23;;;;;;;-145.69;59.16;52099.81;5134641;27;20196;-81
2023/08/29 06:28:27;;;;;;;21.90;14.48;;;;;;;-145.69;58.00;52054.25;5129047;27;20192;-81
2023/08/29 06:30:54;;;;;;;20.42;13.43;;;;;;;-145.69;58.43;52113.66;5135197;27;20251;-81
2023/08/29 06:33:21;;;;;;;23.13;14.27;;;;;;;-145.69;58.68;52068.13;5135330;27;20296;-81
2023/08/29 06:35:49;;;;;;;25.70;13.88;;;;;;;-145.69;58.32;52083.97;5135512;27;20211;-81
2023/08/29 06:38:15;;;;;;;19.40;12.77;;;;;;;-145.69;56.90;52078.03;5135344;27;20727;-81
2023/08/29 06:40:53;;;;;;;17.73;12.05;;;;;;;-145.69;58.39;52089.91;5135028;27;20211;-81
2023/08/29 06:43:20;;;;;;;26.83;12.65;;;;;;;-145.69;57.60;52076.03;5113526;28;20229;-81
2023/08/29 06:45:46;;;;;;;18.08;12.98;;;;;;;-145.69;57.90;52074.06;5113886;28;20207;-81
2023/08/29 06:48:13;;;;;;;20.45;13.07;;;;;;;-145.69;56.78;52066.16;5114078;28;20201;-81
2023/08/29 06:50:42;;;;;;;19.10;13.07;;;;;;;-145.69;58.86;52099.81;5113818;28;20209;-81
2023/08/29 06:53:09;;;;;;;19.80;12.55;;;;;;;-145.69;58.35;52074.06;5113867;28;20288;-81
2023/08/29 06:55:36;;;;;;;21.23;13.85;;;;;;;-145.69;58.58;52052.28;5126141;27;20627;-81
2023/08/29 06:58:04;;;;;;;27.17;14.73;;;;;;;-145.69;57.30;52076.03;5133755;27;20193;-82
2023/08/29 07:00:31;;;;;;;23.00;15.02;;;;;;;-145.69;57.43;52076.03;5134273;27;20651;-81
2023/08/29 07:02:57;;;;;;;18.75;13.02;;;;;;;-145.69;56.35;52072.09;5134657;27;20280;-81
2023/08/29 07:05:24;;;;;;;24.17;14.85;;;;;;;-145.69;57.35;52099.81;5134444;27;20204;-81
2023/08/29 07:07:51;;;;;;;20.95;14.18;;;;;;;-145.69;57.75;52068.13;5134235;27;20287;-81
2023/08/29 07:10:19;;;;;;;22.15;14.60;;;;;;;-145.69;57.43;52056.25;5132948;27;20562;-81
2023/08/29 07:12:46;;;;;;;19.48;13.55;;;;;;;-145.69;57.89;52064.16;5134374;28;20646;-81
2023/08/29 07:15:13;;;;;;;21.20;13.77;;;;;;;-145.69;58.36;52080.00;5134636;27;20200;-81
2023/08/29 07:17:39;;;;;;;23.98;15.90;;;;;;;-145.69;57.35;52072.09;5134527;28;20207;-82
2023/08/29 07:20:08;;;;;;;23.08;15.95;;;;;;;-145.69;57.02;52032.47;5134147;27;20207;-81
2023/08/29 07:22:36;;;;;;;22.00;14.45;;;;;;;-145.69;56.69;52064.16;5134403;27;20280;-81
2023/08/29 07:25:02;;;;;;;24.77;14.52;;;;;;;-145.69;57.39;52082.00;5133878;28;20616;-81
2023/08/29 07:27:31;;;;;;;25.23;14.13;;;;;;;-145.69;57.96;52056.25;5133914;27;20234;-82
2023/08/29 07:29:57;;;;;;;23.08;14.60;;;;;;;-145.69;56.34;52060.22;5134223;28;20212;-82
2023/08/29 07:32:24;;;;;;;20.70;12.95;;;;;;;-145.69;56.11;52099.81;5134831;27;20196;-82
2023/08/29 07:34:51;;;;;;;21.90;13.65;;;;;;;-145.69;56.39;52060.22;5134757;28;20197;-82
2023/08/29 07:37:18;;;;;;;19.88;12.85;;;;;;;-145.69;57.01;52074.06;5133956;27;20204;-82
2023/08/29 07:39:44;;;;;;;19.55;13.70;;;;;;;-145.69;55.52;52072.09;5133758;27;20201;-81
2023/08/29 07:42:11;;;;;;;17.85;12.95;;;;;;;-145.69;57.08;52052.28;5133589;27;20235;-80
2023/08/29 07:44:39;;;;;;;17.52;11.35;;;;;;;-145.69;55.31;52034.47;5134414;27;20312;-82
2023/08/29 07:47:06;;;;;;;17.85;11.90;;;;;;;-145.69;55.70;52060.22;5135025;28;20647;-81
2023/08/29 07:49:32;;;;;;;17.95;12.05;;;;;;;-145.69;54.26;52012.69;5135040;28;20210;-80
2023/08/29 07:51:59;;;;;;;15.93;11.60;;;;;;;-145.69;53.18;52028.53;5135432;27;20200;-81
2023/08/29 07:54:25;;;;;;;14.50;10.32;;;;;;;-145.69;52.29;52026.53;5135992;27;20193;-81
2023/08/29 07:56:52;;;;;;;13.65;9.65;;;;;;;-145.69;54.13;52040.41;5138486;27;20197;-82
2023/08/29 07:59:19;;;;;;;14.30;10.70;;;;;;;-145.69;54.72;52036.44;5138385;27;20500;-82
2023/08/29 08:01:48;;;;;;;15.82;11.18;;;;;;;-145.69;52.25;52036.44;5137215;27;20200;-82
2023/08/29 08:04:14;;;;;;;19.27;12.15;;;;;;;-145.69;52.72;52038.44;5137447;27;20212;-83
2023/08/29 08:06:41;;;;;;;15.77;10.82;;;;;;;-145.69;52.26;52060.22;5138614;27;20197;-81
2023/08/29 08:09:09;;;;;;;17.15;11.15;;;;;;;-145.69;52.49;52054.25;5138858;27;20250;-81
2023/08/29 08:11:35;;;;;;;14.73;10.85;;;;;;;-145.69;53.21;52024.56;5138424;27;20738;-80
2023/08/29 08:14:03;;;;;;;16.23;11.25;;;;;;;-145.69;52.79;52032.47;5137706;27;20706;-81
2023/08/29 08:16:29;;;;;;;17.60;11.80;;;;;;;-145.69;53.24;52044.38;5137091;27;20223;-82
2023/08/29 08:18:57;;;;;;;16.58;11.23;;;;;;;-145.69;52.51;52042.38;5136894;27;20669;-82
2023/08/29 08:21:23;;;;;;;14.57;10.48;;;;;;;-145.69;53.36;52044.38;5137080;27;20665;-82
2023/08/29 08:23:50;;;;;;;17.65;11.27;;;;;;;-145.69;52.92;52042.38;5136899;27;20224;-82
2023/08/29 08:26:16;;;;;;;12.82;9.07;;;;;;;-145.69;53.85;52028.53;5137017;27;20674;-80
2023/08/29 08:28:43;;;;;;;13.15;10.00;;;;;;;-145.69;53.37;52040.41;5137485;27;20196;-82
2023/08/29 08:31:10;;;;;;;12.48;9.60;;;;;;;-145.69;53.50;52054.25;5137213;27;20201;-82
2023/08/29 08:33:37;;;;;;;15.73;9.27;;;;;;;-145.69;53.02;52028.53;5137136;27;20196;-82
2023/08/29 08:36:05;;;;;;;13.27;9.68;;;;;;;-145.69;51.68;52004.75;5137652;27;20203;-82
2023/08/29 08:38:32;;;;;;;12.00;9.20;;;;;;;-145.69;52.42;52026.53;5136935;27;20201;-82
2023/08/29 08:40:59;;;;;;;14.00;9.65;;;;;;;-145.69;53.00;52028.53;5136882;27;20254;-82
2023/08/29 08:43:27;;;;;;;12.52;8.82;;;;;;;-145.69;52.31;52024.56;5136918;27;20224;-82
2023/08/29 08:45:54;;;;;;;10.43;8.15;;;;;;;-145.69;52.39;52048.31;5136593;27;20198;-81
2023/08/29 08:48:21;;;;;;;11.90;8.85;;;;;;;-145.69;53.23;52052.28;5137268;27;20196;-82
2023/08/29 08:50:50;;;;;;;13.27;9.35;;;;;;;-145.69;53.80;52030.50;5136955;27;20205;-81
2023/08/29 08:53:19;;;;;;;12.13;9.18;;;;;;;-145.69;54.61;52024.56;5137723;27;20212;-82
2023/08/29 08:55:46;;;;;;;15.55;9.13;;;;;;;-145.69;55.04;52056.25;5136276;27;20199;-82
2023/08/29 08:58:13;;;;;;;13.95;9.35;;;;;;;-145.69;54.59;52030.50;5136873;27;20201;-81
2023/08/29 09:00:40;;;;;;;17.25;9.40;;;;;;;-145.69;55.38;52040.41;5135915;27;20735;-81
2023/08/29 09:03:07;;;;;;;13.73;9.52;;;;;;;-145.69;55.29;52012.69;5136088;27;20193;-82
2023/08/29 09:05:34;;;;;;;12.52;8.75;;;;;;;-145.69;55.32;52028.53;5136046;27;20220;-82
2023/08/29 09:08:00;;;;;;;14.70;9.90;;;;;;;-145.69;54.79;52034.47;5136834;27;20293;-82
2023/08/29 09:10:33;;;;;;;13.30;9.25;;;;;;;-145.69;54.57;51982.97;5133502;27;20228;-82
2023/08/29 09:13:00;;;;;;;11.23;8.50;;;;;;;-145.69;54.47;52026.53;5136112;27;20203;-82
2023/08/29 09:15:27;;;;;;;11.02;7.15;;;;;;;-145.69;54.25;52004.75;5136352;27;20593;-82
2023/08/29 09:17:55;;;;;;;8.30;6.43;;;;;;;-145.69;53.63;52020.59;5136072;27;20287;-81
2023/08/29 09:20:24;;;;;;;8.80;6.20;;;;;;;-145.69;52.84;52032.47;5136301;27;20651;-82
2023/08/29 09:22:50;;;;;;;7.40;5.80;;;;;;;-145.69;52.82;52028.53;5136485;27;20677;-82
2023/08/29 09:25:17;;;;;;;8.43;5.97;;;;;;;-145.69;52.81;52008.72;5136377;27;20248;-82
2023/08/29 09:27:47;;;;;;;7.75;4.75;;;;;;;-145.69;52.79;52012.69;5136126;27;20197;-81
2023/08/29 09:30:15;;;;;;;8.23;5.63;;;;;;;-145.69;50.39;51984.97;5150508;27;20192;-81
2023/08/29 09:32:43;;;;;;;6.28;4.95;;;;;;;-145.69;49.34;51988.91;5157241;27;20207;-81
2023/08/29 09:35:12;;;;;;;4.95;4.18;;;;;;;-145.69;49.00;51977.03;5137980;27;20196;-80
2023/08/29 09:37:42;;;;;;;8.07;4.72;;;;;;;-145.69;49.42;52004.75;5136130;27;20206;-81
2023/08/29 09:40:10;;;;;;;7.22;4.50;;;;;;;-145.69;49.63;51977.03;5136779;27;20257;-81
2023/08/29 09:42:36;;;;;;;7.25;5.10;;;;;;;-145.69;50.09;51973.06;5135934;27;20228;-82
2023/08/29 09:45:08;;;;;;;5.38;4.25;;;;;;;-145.69;49.54;51982.97;5135236;27;20225;-82
2023/08/29 09:47:34;;;;;;;5.05;4.15;;;;;;;-145.69;49.49;51986.94;5129080;27;20633;-81
2023/08/29 09:50:03;;;;;;;7.50;4.93;;;;;;;-145.69;49.83;52022.59;5135874;27;20204;-81
2023/08/29 09:52:29;;;;;;;6.50;4.90;;;;;;;-145.69;48.79;51994.88;5136042;27;20662;-81
2023/08/29 09:54:58;;;;;;;8.02;5.50;;;;;;;-145.69;49.41;51996.84;5135578;27;20443;-81
2023/08/29 09:57:31;;;;;;;8.43;5.50;;;;;;;-145.69;48.34;51984.97;5136598;27;20201;-81
2023/08/29 09:59:58;;;;;;;7.07;4.70;;;;;;;-145.69;47.15;51992.88;5136343;27;20197;-82
2023/08/29 10:02:30;;;;;;;7.05;4.68;;;;;;;-145.69;47.09;51992.88;5135838;27;20586;-81
2023/08/29 10:05:05;;;;;;;6.40;5.18;;;;;;;-145.69;46.06;51955.25;5134656;27;20698;-82
2023/08/29 10:07:39;;;;;;;8.27;5.25;;;;;;;-145.69;45.68;51959.22;5143461;27;20213;-81
2023/08/29 10:10:08;;;;;;;5.43;3.92;;;;;;;-145.69;44.73;51984.97;5144298;27;20191;-81
2023/08/29 10:12:36;;;;;;;5.65;4.53;;;;;;;-145.69;44.90;51988.91;5135258;27;20193;-81
2023/08/29 10:15:04;;;;;;;8.23;5.25;;;;;;;-145.69;44.78;51992.88;5135896;27;20208;-81
2023/08/29 10:17:36;;;;;;;6.45;4.55;;;;;;;-145.69;45.10;51943.38;5135872;27;20216;-82
2023/08/29 10:20:09;;;;;;;5.10;3.67;;;;;;;-145.69;44.88;51941.41;5134654;27;20196;-82
2023/08/29 10:22:38;;;;;;;4.80;4.18;;;;;;;-145.69;44.35;51939.41;5140143;27;20192;-82
2023/08/29 10:25:05;;;;;;;5.03;3.88;;;;;;;-145.69;43.82;51933.47;5134543;27;20228;-82
2023/08/29 10:27:33;;;;;;;6.43;3.63;;;;;;;-145.69;42.92;51923.56;5130321;27;20189;-82
2023/08/29 10:29:59;;;;;;;5.13;4.03;;;;;;;-145.69;41.83;51925.56;5135228;27;20199;-82
2023/08/29 10:32:27;;;;;;;5.20;3.50;;;;;;;-145.69;42.82;51937.44;5137240;27;20501;-81
2023/08/29 10:34:55;;;;;;;4.68;3.40;;;;;;;-145.69;41.18;51951.28;5134845;27;20442;-82
2023/08/29 10:37:23;;;;;;;5.90;3.60;;;;;;;-145.69;41.49;51947.34;5139763;27;20205;-81
2023/08/29 10:39:51;;;;;;;4.47;3.40;;;;;;;-145.69;41.28;51935.47;5155981;27;20285;-82
2023/08/29 10:42:18;;;;;;;5.63;3.25;;;;;;;-145.69;41.67;51923.56;5155935;27;20238;-81
2023/08/29 10:44:46;;;;;;;4.07;3.42;;;;;;;-145.69;41.58;51933.47;5155598;27;20224;-80
2023/08/29 10:47:26;;;;;;;4.82;3.50;;;;;;;-145.69;41.72;51963.19;5145185;27;20220;-81
2023/08/29 10:50:00;;;;;;;6.03;3.35;;;;;;;-145.69;41.50;51957.25;5134296;27;20616;-81
2023/08/29 10:52:36;;;;;;;5.95;3.88;;;;;;;-145.69;42.21;51925.56;5138163;27;20188;-81
2023/08/29 10:55:08;;;;;;;6.30;4.55;;;;;;;-145.69;43.10;51959.22;5154033;27;20244;-81
2023/08/29 10:57:34;;;;;;;5.60;3.80;;;;;;;-145.69;42.67;51953.28;5135088;27;20659;-81
2023/08/29 11:00:19;;;;;;;5.53;3.67;;;;;;;-145.69;43.15;51955.25;5134382;27;20199;-81
2023/08/29 11:02:47;;;;;;;4.97;4.28;;;;;;;-145.69;44.61;51953.28;5135854;27;20291;-81
2023/08/29 11:05:16;;;;;;;7.03;5.00;;;;;;;-145.69;45.01;51996.84;5127955;27;20229;-81
2023/08/29 11:07:43;;;;;;;6.60;4.47;;;;;;;-145.69;45.26;51965.16;5127153;27;20225;-81